createdAt,value
2023-04-18T00:01:40.477Z,10.83
2023-04-18T00:04:10.506Z,10.81
2023-04-18T00:06:38.548Z,10.79
2023-04-18T00:09:06.632Z,10.78
2023-04-18T00:11:34.559Z,10.78
2023-04-18T00:14:03.264Z,10.76
2023-04-18T00:16:33.081Z,10.77
2023-04-18T00:19:02.202Z,10.74
2023-04-18T00:21:30.129Z,10.74
2023-04-18T00:23:57.960Z,10.72
2023-04-18T00:26:25.801Z,10.69
2023-04-18T00:28:54.521Z,10.66
2023-04-18T00:31:22.302Z,10.63
2023-04-18T00:33:53.109Z,10.64
2023-04-18T00:36:20.863Z,10.60
2023-04-18T00:38:48.636Z,10.58
2023-04-18T00:41:16.774Z,10.52
2023-04-18T00:43:44.559Z,10.54
2023-04-18T00:46:12.571Z,10.50
2023-04-18T00:48:40.718Z,10.51
2023-04-18T00:51:10.900Z,10.51
2023-04-18T00:53:38.937Z,10.52
2023-04-18T00:56:07.478Z,10.47
2023-04-18T00:58:35.887Z,10.46
2023-04-18T01:01:03.943Z,10.42
2023-04-18T01:03:32.995Z,10.42
2023-04-18T01:06:01.151Z,10.39
2023-04-18T01:08:30.606Z,10.34
2023-04-18T01:10:59.600Z,10.35
2023-04-18T01:13:27.510Z,10.37
2023-04-18T01:15:55.739Z,10.43
2023-04-18T01:18:24.343Z,10.44
2023-04-18T01:20:53.350Z,10.49
2023-04-18T01:23:21.954Z,10.52
2023-04-18T01:25:51.047Z,10.56
2023-04-18T01:28:21.228Z,10.61
2023-04-18T01:30:49.683Z,10.61
2023-04-18T01:33:17.500Z,10.66
2023-04-18T01:35:48.226Z,10.65
2023-04-18T01:38:15.948Z,10.67
2023-04-18T01:40:43.914Z,10.67
2023-04-18T01:43:13.092Z,10.70
2023-04-18T01:45:40.909Z,10.68
2023-04-18T01:48:10.079Z,10.65
2023-04-18T01:50:37.807Z,10.65
2023-04-18T01:53:05.601Z,10.65
2023-04-18T01:55:33.300Z,10.63
2023-04-18T01:58:01.105Z,10.61
2023-04-18T02:00:30.280Z,10.65
2023-04-18T02:02:59.553Z,10.62
2023-04-18T02:05:28.061Z,10.65
2023-04-18T02:07:55.941Z,10.62
2023-04-18T02:10:23.895Z,10.63
2023-04-18T02:12:51.666Z,10.61
2023-04-18T02:15:19.862Z,10.60
2023-04-18T02:17:50.527Z,10.57
2023-04-18T02:20:18.272Z,10.57
2023-04-18T02:22:47.776Z,10.60
2023-04-18T02:25:15.545Z,10.52
2023-04-18T02:27:43.386Z,10.53
2023-04-18T02:30:11.700Z,10.46
2023-04-18T02:32:39.623Z,10.43
2023-04-18T02:35:09.463Z,10.39
2023-04-18T02:37:37.238Z,10.31
2023-04-18T02:40:05.864Z,10.29
2023-04-18T02:42:33.624Z,10.16
2023-04-18T02:45:02.625Z,10.27
2023-04-18T02:47:35.409Z,10.23
2023-04-18T02:50:13.085Z,10.23
2023-04-18T02:52:40.940Z,10.17
2023-04-18T02:55:10.588Z,10.14
2023-04-18T02:57:41.916Z,10.15
2023-04-18T03:00:38.814Z,10.15
2023-04-18T03:03:06.698Z,10.15
2023-04-18T03:05:55.765Z,10.11
2023-04-18T03:08:23.875Z,10.09
2023-04-18T03:10:51.747Z,10.07
2023-04-18T03:13:23.286Z,9.99
2023-04-18T03:15:52.075Z,9.95
2023-04-18T03:18:19.936Z,9.92
2023-04-18T03:20:48.076Z,9.90
2023-04-18T03:23:19.071Z,9.84
2023-04-18T03:25:47.329Z,9.78
2023-04-18T03:28:15.147Z,9.77
2023-04-18T03:30:43.108Z,9.74
2023-04-18T03:33:11.979Z,9.72
2023-04-18T03:35:40.202Z,9.72
2023-04-18T03:38:08.440Z,9.68
2023-04-18T03:40:42.106Z,9.66
2023-04-18T03:43:16.802Z,9.65
2023-04-18T03:45:47.238Z,9.62
2023-04-18T03:48:16.982Z,9.59
2023-04-18T03:50:46.783Z,9.62
2023-04-18T03:53:15.022Z,9.67
2023-04-18T03:55:44.627Z,9.61
2023-04-18T03:58:15.346Z,9.56
2023-04-18T04:00:43.417Z,9.52
2023-04-18T04:03:12.467Z,9.53
2023-04-18T04:05:41.276Z,9.52
2023-04-18T04:08:09.067Z,9.54
2023-04-18T04:10:37.031Z,9.53
2023-04-18T04:13:06.618Z,9.58
2023-04-18T04:15:38.475Z,9.56
2023-04-18T04:18:08.978Z,9.51
2023-04-18T04:20:39.984Z,9.50
2023-04-18T04:23:13.272Z,9.40
2023-04-18T04:25:42.400Z,9.39
2023-04-18T04:28:22.684Z,9.42
2023-04-18T04:30:56.583Z,9.53
2023-04-18T04:33:28.382Z,9.48
2023-04-18T04:36:01.217Z,9.50
2023-04-18T04:38:31.387Z,9.50
2023-04-18T04:40:59.792Z,9.49
2023-04-18T04:43:29.652Z,9.54
2023-04-18T04:45:58.365Z,9.62
2023-04-18T04:48:26.951Z,9.66
2023-04-18T04:50:57.866Z,9.73
2023-04-18T04:53:27.946Z,9.83
2023-04-18T04:55:56.090Z,9.92
2023-04-18T04:58:24.283Z,9.99
2023-04-18T05:01:07.521Z,10.01
2023-04-18T05:03:36.465Z,10.06
2023-04-18T05:06:05.821Z,10.12
2023-04-18T05:08:33.905Z,10.11
2023-04-18T05:11:02.402Z,10.10
2023-04-18T05:13:30.152Z,10.11
2023-04-18T05:15:59.282Z,10.16
2023-04-18T05:18:28.539Z,10.20
2023-04-18T05:20:56.905Z,10.21
2023-04-18T05:23:24.804Z,10.21
2023-04-18T05:25:53.282Z,10.26
2023-04-18T05:28:21.136Z,10.29
2023-04-18T05:30:48.948Z,10.28
2023-04-18T05:33:16.803Z,10.34
2023-04-18T05:35:45.904Z,10.33
2023-04-18T05:38:13.734Z,10.32
2023-04-18T05:40:42.398Z,10.38
2023-04-18T05:43:10.176Z,10.40
2023-04-18T05:45:38.103Z,10.49
2023-04-18T05:48:06.076Z,10.51
2023-04-18T05:50:33.884Z,10.61
2023-04-18T05:53:03.032Z,10.66
2023-04-18T05:55:30.840Z,10.67
2023-04-18T05:57:58.620Z,10.70
2023-04-18T06:00:26.398Z,10.65
2023-04-18T06:02:54.207Z,10.77
2023-04-18T06:05:22.730Z,10.76
2023-04-18T06:07:50.791Z,10.71
2023-04-18T06:10:20.164Z,10.73
2023-04-18T06:12:47.892Z,10.78
2023-04-18T06:15:15.649Z,10.77
2023-04-18T06:17:44.578Z,10.83
2023-04-18T06:20:12.716Z,10.85
2023-04-18T06:22:40.418Z,10.87
2023-04-18T06:25:09.944Z,10.89
2023-04-18T06:27:39.402Z,10.85
2023-04-18T06:30:08.173Z,10.90
2023-04-18T06:32:35.973Z,10.88
2023-04-18T06:35:03.977Z,10.87
2023-04-18T06:37:31.768Z,10.87
2023-04-18T06:39:59.607Z,10.87
2023-04-18T06:42:27.315Z,10.87
2023-04-18T06:44:57.272Z,10.95
2023-04-18T06:47:25.188Z,10.96
2023-04-18T06:49:52.953Z,11.02
2023-04-18T06:52:20.638Z,11.03
2023-04-18T06:54:48.384Z,11.06
2023-04-18T06:57:16.923Z,11.06
2023-04-18T06:59:44.647Z,11.08
2023-04-18T07:02:14.032Z,11.11
2023-04-18T07:04:41.918Z,11.12
2023-04-18T07:07:09.823Z,11.15
2023-04-18T07:09:37.592Z,11.23
2023-04-18T07:12:05.534Z,11.24
2023-04-18T07:14:34.302Z,11.33
2023-04-18T07:17:02.709Z,11.41
2023-04-18T07:19:31.859Z,11.45
2023-04-18T07:21:59.603Z,11.46
2023-04-18T07:24:27.412Z,11.52
2023-04-18T07:26:55.317Z,11.55
2023-04-18T07:29:23.244Z,11.56
2023-04-18T07:31:51.218Z,11.49
2023-04-18T07:34:19.056Z,11.56
2023-04-18T07:36:48.173Z,11.55
2023-04-18T07:39:15.889Z,11.53
2023-04-18T07:41:43.630Z,11.55
2023-04-18T07:44:11.635Z,11.66
2023-04-18T07:46:39.596Z,11.79
2023-04-18T07:49:07.446Z,11.86
2023-04-18T07:51:35.298Z,11.96
2023-04-18T07:54:04.340Z,12.03
2023-04-18T07:56:32.068Z,12.06
2023-04-18T07:58:59.759Z,12.12
2023-04-18T08:01:27.660Z,12.17
2023-04-18T08:03:57.729Z,12.22
2023-04-18T08:06:26.196Z,12.33
2023-04-18T08:08:54.075Z,12.37
2023-04-18T08:11:23.341Z,12.42
2023-04-18T08:13:51.153Z,12.47
2023-04-18T08:16:18.950Z,12.55
2023-04-18T08:18:46.707Z,12.59
2023-04-18T08:21:14.518Z,12.69
2023-04-18T08:23:42.242Z,12.64
2023-04-18T08:26:10.168Z,12.70
2023-04-18T08:28:39.331Z,12.74
2023-04-18T08:31:07.141Z,12.72
2023-04-18T08:33:35.022Z,12.72
2023-04-18T08:36:03.212Z,12.79
2023-04-18T08:38:31.110Z,12.83
2023-04-18T08:40:58.834Z,12.88
2023-04-18T08:43:26.816Z,12.86
2023-04-18T08:46:00.277Z,12.96
2023-04-18T08:48:28.851Z,12.99
2023-04-18T08:50:58.736Z,13.01
2023-04-18T08:53:27.543Z,13.08
2023-04-18T08:55:56.414Z,13.18
2023-04-18T08:58:27.004Z,13.10
2023-04-18T09:00:56.299Z,13.18
2023-04-18T09:03:40.875Z,13.10
2023-04-18T09:06:18.576Z,13.11
2023-04-18T09:08:58.746Z,13.13
2023-04-18T09:11:28.987Z,13.17
2023-04-18T09:13:58.718Z,13.24
2023-04-18T09:16:29.237Z,13.29
2023-04-18T09:19:11.939Z,13.37
2023-04-18T09:21:41.463Z,13.45
2023-04-18T09:24:23.554Z,13.40
2023-04-18T09:26:53.769Z,13.37
2023-04-18T09:29:23.369Z,13.31
2023-04-18T09:32:03.124Z,13.36
2023-04-18T09:34:34.013Z,13.44
2023-04-18T09:37:10.373Z,13.61
2023-04-18T09:39:39.495Z,13.69
2023-04-18T09:42:08.098Z,13.76
2023-04-18T09:44:35.897Z,13.76
2023-04-18T09:47:07.827Z,13.79
2023-04-18T09:49:35.720Z,13.84
2023-04-18T09:52:07.390Z,13.81
2023-04-18T09:54:39.495Z,13.79
2023-04-18T09:57:13.622Z,13.82
2023-04-18T09:59:47.717Z,13.90
2023-04-18T10:02:23.621Z,13.87
2023-04-18T10:04:52.493Z,13.87
2023-04-18T10:07:21.839Z,13.89
2023-04-18T10:09:50.453Z,13.93
2023-04-18T10:12:19.022Z,14.17
2023-04-18T10:14:47.293Z,14.35
2023-04-18T10:17:17.146Z,14.44
2023-04-18T10:19:46.767Z,14.55
2023-04-18T10:22:14.553Z,14.58
2023-04-18T10:24:50.203Z,14.81
2023-04-18T10:27:18.638Z,15.34
2023-04-18T10:29:51.176Z,15.80
2023-04-18T10:32:24.401Z,16.23
2023-04-18T10:34:54.630Z,16.28
2023-04-18T10:37:22.455Z,16.16
2023-04-18T10:39:52.050Z,16.30
2023-04-18T10:42:19.848Z,16.10
2023-04-18T10:45:20.941Z,15.96
2023-04-18T10:47:50.930Z,15.62
2023-04-18T10:50:18.876Z,15.44
2023-04-18T10:52:46.739Z,15.28
2023-04-18T10:55:18.328Z,15.14
2023-04-18T10:57:47.862Z,15.01
2023-04-18T11:00:18.228Z,14.90
2023-04-18T11:02:52.932Z,14.86
2023-04-18T11:05:23.294Z,14.90
2023-04-18T11:07:51.234Z,15.17
2023-04-18T11:10:20.771Z,15.21
2023-04-18T11:12:48.793Z,15.20
2023-04-18T11:15:21.232Z,15.24
2023-04-18T11:18:01.488Z,15.64
2023-04-18T11:20:30.156Z,15.98
2023-04-18T11:22:59.540Z,15.93
2023-04-18T11:25:29.495Z,15.80
2023-04-18T11:28:00.450Z,15.69
2023-04-18T11:30:28.994Z,15.52
2023-04-18T11:32:58.115Z,15.40
2023-04-18T11:35:25.961Z,15.21
2023-04-18T11:37:56.067Z,15.21
2023-04-18T11:40:24.240Z,15.26
2023-04-18T11:42:51.976Z,15.35
2023-04-18T11:45:19.740Z,15.38
2023-04-18T11:47:47.551Z,15.46
2023-04-18T11:50:16.739Z,15.90
2023-04-18T11:52:50.223Z,16.01
2023-04-18T11:55:21.370Z,15.87
2023-04-18T11:57:54.095Z,15.83
2023-04-18T12:00:35.006Z,15.98
2023-04-18T12:03:05.291Z,16.12
2023-04-18T12:05:36.929Z,16.40
2023-04-18T12:08:09.421Z,16.98
2023-04-18T12:10:37.464Z,17.02
2023-04-18T12:13:08.753Z,18.35
2023-04-18T12:15:39.753Z,18.80
2023-04-18T12:18:09.281Z,18.43
2023-04-18T12:20:46.448Z,17.57
2023-04-18T12:23:30.448Z,17.11
2023-04-18T12:26:02.483Z,17.00
2023-04-18T12:28:30.791Z,16.81
2023-04-18T12:30:58.955Z,16.58
2023-04-18T12:33:26.899Z,16.47
2023-04-18T12:35:56.037Z,16.35
2023-04-18T12:38:24.656Z,16.28
2023-04-18T12:40:53.080Z,16.24
2023-04-18T12:43:21.183Z,16.33
2023-04-18T12:45:49.048Z,16.40
2023-04-18T12:48:17.003Z,16.40
2023-04-18T12:50:44.854Z,16.45
2023-04-18T12:53:14.111Z,16.46
2023-04-18T12:55:42.017Z,16.38
2023-04-18T12:58:09.748Z,16.31
2023-04-18T13:00:38.086Z,16.29
2023-04-18T13:03:06.072Z,16.43
2023-04-18T13:05:34.506Z,16.54
2023-04-18T13:08:15.328Z,16.59
2023-04-18T13:10:46.112Z,16.52
2023-04-18T13:13:19.837Z,16.42
2023-04-18T13:15:47.694Z,16.38
2023-04-18T13:18:15.676Z,16.36
2023-04-18T13:20:44.018Z,16.52
2023-04-18T13:23:11.765Z,16.56
2023-04-18T13:25:42.761Z,16.60
2023-04-18T13:28:11.904Z,16.56
2023-04-18T13:30:39.891Z,16.71
2023-04-18T13:33:07.883Z,17.28
2023-04-18T13:35:41.570Z,17.19
2023-04-18T13:38:11.029Z,17.61
2023-04-18T13:40:39.206Z,17.86
2023-04-18T13:43:06.892Z,18.50
2023-04-18T13:45:36.255Z,19.50
2023-04-18T13:48:04.327Z,19.63
2023-04-18T13:50:32.129Z,19.30
2023-04-18T13:52:59.836Z,18.73
2023-04-18T13:55:30.752Z,18.33
2023-04-18T13:57:58.619Z,18.00
2023-04-18T14:00:28.448Z,17.75
2023-04-18T14:02:57.722Z,17.58
2023-04-18T14:05:25.831Z,17.41
2023-04-18T14:07:53.594Z,17.49
2023-04-18T14:10:21.684Z,17.52
2023-04-18T14:12:49.491Z,17.39
2023-04-18T14:15:17.711Z,17.18
2023-04-18T14:17:46.063Z,17.05
2023-04-18T14:20:19.152Z,16.93
2023-04-18T14:22:47.008Z,16.78
2023-04-18T14:25:16.993Z,16.73
2023-04-18T14:27:50.186Z,16.64
2023-04-18T14:30:17.975Z,16.62
2023-04-18T14:32:45.783Z,16.61
2023-04-18T14:35:15.065Z,16.61
2023-04-18T14:37:42.867Z,16.58
2023-04-18T14:40:12.269Z,16.54
2023-04-18T14:42:39.978Z,16.57
2023-04-18T14:45:09.053Z,16.52
2023-04-18T14:47:39.038Z,16.50
2023-04-18T14:50:08.268Z,16.48
2023-04-18T14:52:37.489Z,16.47
2023-04-18T14:55:05.852Z,16.47
2023-04-18T14:57:34.609Z,16.60
2023-04-18T15:00:03.987Z,16.59
2023-04-18T15:02:31.903Z,16.64
2023-04-18T15:05:00.232Z,16.67
2023-04-18T15:07:28.203Z,16.67
2023-04-18T15:09:57.518Z,16.71
2023-04-18T15:12:25.357Z,16.71
2023-04-18T15:14:53.887Z,16.70
2023-04-18T15:17:21.909Z,16.65
2023-04-18T15:19:49.633Z,16.60
2023-04-18T15:22:17.422Z,16.56
2023-04-18T15:24:45.144Z,16.48
2023-04-18T15:27:14.270Z,16.51
2023-04-18T15:29:42.025Z,16.63
2023-04-18T15:32:10.251Z,16.82
2023-04-18T15:34:38.086Z,16.98
2023-04-18T15:37:05.953Z,17.14
2023-04-18T15:39:33.695Z,17.23
2023-04-18T15:42:02.318Z,17.26
2023-04-18T15:44:31.794Z,17.21
2023-04-18T15:47:01.130Z,17.17
2023-04-18T15:49:28.859Z,17.14
2023-04-18T15:51:56.859Z,17.09
2023-04-18T15:54:43.017Z,16.94
2023-04-18T15:57:25.571Z,16.82
2023-04-18T16:00:12.336Z,16.76
2023-04-18T16:02:41.693Z,16.68
2023-04-18T16:05:14.132Z,16.70
2023-04-18T16:07:51.557Z,16.63
2023-04-18T16:10:26.287Z,16.49
2023-04-18T16:12:55.732Z,16.43
2023-04-18T16:15:29.134Z,16.38
2023-04-18T16:18:02.943Z,16.51
2023-04-18T16:20:43.720Z,16.70
2023-04-18T16:23:15.162Z,16.81
2023-04-18T16:25:51.530Z,16.86
2023-04-18T16:28:22.673Z,16.93
2023-04-18T16:30:55.613Z,17.04
2023-04-18T16:33:28.115Z,17.14
2023-04-18T16:36:02.922Z,17.15
2023-04-18T16:38:42.162Z,17.17
2023-04-18T16:41:11.298Z,17.07
2023-04-18T16:43:45.230Z,16.91
2023-04-18T16:46:18.694Z,16.76
2023-04-18T16:48:56.074Z,16.66
2023-04-18T16:51:36.144Z,16.55
2023-04-18T16:54:10.651Z,16.43
2023-04-18T16:56:44.994Z,16.30
2023-04-18T16:59:15.600Z,16.27
2023-04-18T17:01:48.102Z,16.23
2023-04-18T17:04:19.006Z,16.17
2023-04-18T17:06:55.314Z,16.13
2023-04-18T17:09:24.977Z,16.09
2023-04-18T17:11:57.173Z,16.05
2023-04-18T17:14:31.254Z,15.98
2023-04-18T17:17:07.481Z,15.90
2023-04-18T17:19:47.494Z,15.86
2023-04-18T17:22:18.952Z,15.85
2023-04-18T17:24:50.690Z,15.86
2023-04-18T17:27:22.649Z,15.91
2023-04-18T17:30:01.410Z,15.91
2023-04-18T17:32:42.762Z,15.93
2023-04-18T17:35:17.302Z,15.90
2023-04-18T17:37:46.404Z,15.83
2023-04-18T17:40:24.599Z,15.72
2023-04-18T17:42:53.964Z,15.68
2023-04-18T17:45:27.897Z,15.66
2023-04-18T17:48:04.546Z,15.58
2023-04-18T17:50:55.121Z,15.54
2023-04-18T17:53:31.492Z,15.48
2023-04-18T17:56:04.340Z,15.44
2023-04-18T17:58:55.306Z,15.41
2023-04-18T18:01:26.609Z,15.36
2023-04-18T18:04:03.031Z,15.28
2023-04-18T18:06:58.340Z,15.20
2023-04-18T18:09:37.585Z,15.08
2023-04-18T18:12:30.091Z,15.03
2023-04-18T18:15:07.737Z,14.94
2023-04-18T18:18:02.784Z,14.88
2023-04-18T18:20:39.653Z,14.81
2023-04-18T18:23:13.686Z,14.76
2023-04-18T18:25:57.414Z,14.81
2023-04-18T18:28:31.791Z,14.79
2023-04-18T18:31:02.906Z,14.76
2023-04-18T18:33:35.308Z,14.73
2023-04-18T18:36:07.962Z,14.68
2023-04-18T18:38:37.837Z,14.60
2023-04-18T18:41:12.259Z,14.50
2023-04-18T18:43:44.413Z,14.47
2023-04-18T18:46:19.176Z,14.42
2023-04-18T18:48:53.475Z,14.42
2023-04-18T18:51:24.232Z,14.43
2023-04-18T18:54:21.644Z,14.40
2023-04-18T18:56:52.289Z,14.32
2023-04-18T18:59:23.565Z,14.26
2023-04-18T19:01:53.218Z,14.23
2023-04-18T19:04:29.238Z,14.19
2023-04-18T19:07:01.270Z,14.15
2023-04-18T19:09:37.173Z,14.12
2023-04-18T19:12:10.316Z,14.06
2023-04-18T19:14:48.423Z,13.99
2023-04-18T19:17:22.287Z,13.87
2023-04-18T19:19:58.282Z,13.95
2023-04-18T19:22:29.448Z,13.99
2023-04-18T19:25:00.830Z,14.04
2023-04-18T19:27:36.234Z,14.11
2023-04-18T19:30:05.942Z,14.10
2023-04-18T19:32:35.149Z,14.11
2023-04-18T19:35:14.060Z,14.13
2023-04-18T19:37:45.208Z,14.13
2023-04-18T19:40:16.462Z,14.14
2023-04-18T19:42:54.143Z,14.16
2023-04-18T19:45:28.375Z,14.20
2023-04-18T19:48:00.662Z,14.23
2023-04-18T19:50:30.967Z,14.27
2023-04-18T19:53:02.906Z,14.27
2023-04-18T19:55:32.541Z,14.30
2023-04-18T19:58:02.092Z,14.28
2023-04-18T20:00:35.755Z,14.27
2023-04-18T20:03:17.430Z,14.27
2023-04-18T20:05:47.191Z,14.25
2023-04-18T20:08:18.847Z,14.27
2023-04-18T20:10:48.323Z,14.26
2023-04-18T20:13:20.316Z,14.27
2023-04-18T20:15:57.145Z,14.17
2023-04-18T20:18:29.574Z,14.20
2023-04-18T20:20:59.292Z,14.19
2023-04-18T20:23:30.375Z,14.19
2023-04-18T20:26:04.646Z,14.15
2023-04-18T20:28:39.075Z,14.13
2023-04-18T20:31:12.590Z,14.16
2023-04-18T20:33:42.240Z,14.16
2023-04-18T20:36:18.097Z,14.15
2023-04-18T20:38:52.006Z,14.14
2023-04-18T20:41:27.070Z,14.16
2023-04-18T20:44:00.222Z,14.13
2023-04-18T20:46:31.309Z,14.14
2023-04-18T20:49:06.197Z,14.16
2023-04-18T20:51:38.477Z,14.09
2023-04-18T20:54:28.054Z,14.12
2023-04-18T20:57:19.263Z,14.12
2023-04-18T20:59:51.148Z,14.13
2023-04-18T21:02:29.206Z,14.13
2023-04-18T21:04:56.968Z,14.11
2023-04-18T21:07:25.905Z,14.10
2023-04-18T21:09:54.977Z,14.08
2023-04-18T21:12:22.698Z,14.08
2023-04-18T21:14:50.462Z,14.09
2023-04-18T21:17:18.926Z,14.05
2023-04-18T21:19:46.722Z,14.06
2023-04-18T21:22:14.953Z,14.07
2023-04-18T21:24:42.988Z,14.07
2023-04-18T21:27:12.112Z,14.05
2023-04-18T21:29:40.057Z,14.02
2023-04-18T21:32:07.766Z,14.01
2023-04-18T21:34:35.572Z,14.02
2023-04-18T21:37:03.679Z,13.98
2023-04-18T21:39:31.464Z,13.96
2023-04-18T21:41:59.204Z,13.98
2023-04-18T21:44:28.388Z,13.97
2023-04-18T21:46:57.438Z,13.96
2023-04-18T21:49:25.594Z,13.96
2023-04-18T21:51:54.789Z,13.96
2023-04-18T21:54:22.538Z,13.96
2023-04-18T21:56:50.349Z,13.97
2023-04-18T21:59:18.035Z,13.97
2023-04-18T22:01:47.094Z,13.97
2023-04-18T22:04:15.968Z,13.95
2023-04-18T22:06:44.064Z,13.97
2023-04-18T22:09:12.729Z,13.97
2023-04-18T22:11:40.762Z,13.97
2023-04-18T22:14:09.864Z,13.93
2023-04-18T22:16:38.052Z,13.95
2023-04-18T22:19:08.976Z,13.96
2023-04-18T22:21:36.987Z,13.94
2023-04-18T22:24:05.252Z,13.90
2023-04-18T22:26:33.061Z,13.91
2023-04-18T22:29:00.852Z,13.85
2023-04-18T22:31:28.755Z,13.86
2023-04-18T22:33:56.557Z,13.88
2023-04-18T22:36:27.552Z,13.86
2023-04-18T22:38:55.308Z,13.86
2023-04-18T22:41:23.098Z,13.86
2023-04-18T22:43:50.878Z,13.85
2023-04-18T22:46:18.694Z,13.84
2023-04-18T22:48:46.759Z,13.84
2023-04-18T22:51:15.118Z,13.82
2023-04-18T22:53:44.128Z,13.83
2023-04-18T22:56:11.929Z,13.81
2023-04-18T22:58:39.770Z,13.76
2023-04-18T23:01:07.621Z,13.77
2023-04-18T23:03:35.492Z,13.77
2023-04-18T23:06:03.477Z,13.77
2023-04-18T23:08:31.535Z,13.76
2023-04-18T23:11:00.622Z,13.74
2023-04-18T23:13:28.300Z,13.72
2023-04-18T23:15:56.067Z,13.71
2023-04-18T23:18:23.882Z,13.69
2023-04-18T23:20:51.659Z,13.71
2023-04-18T23:23:19.321Z,13.66
2023-04-18T23:25:47.053Z,13.63
2023-04-18T23:28:17.122Z,13.60
2023-04-18T23:30:45.038Z,13.57
2023-04-18T23:33:13.271Z,13.57
2023-04-18T23:35:41.001Z,13.55
2023-04-18T23:38:08.792Z,13.56
2023-04-18T23:40:36.590Z,13.56
2023-04-18T23:43:04.275Z,13.54
2023-04-18T23:45:33.439Z,13.53
2023-04-18T23:48:01.297Z,13.52
2023-04-18T23:50:29.076Z,13.51
2023-04-18T23:52:56.895Z,13.49
2023-04-18T23:55:24.719Z,13.48
2023-04-18T23:57:52.496Z,13.49
